Time;durP1;ratioP1;P1;durP2;ratioP2;P2;SDS_P1;SDS_P2;PMS_P1;PMS_P2;Temp;Humidity;BMP_temperature;BMP_pressure;BME280_temperature;BME280_humidity;BME280_pressure;Samples;Min_cycle;Max_cycle;Signal;HPM_P1;HPM_P2
2023/03/18 00:00:27;;;;;;;38.53;22.15;;;;;;;17.59;74.95;98704.69;5000584;28;20224;-59
2023/03/18 00:03:17;;;;;;;33.25;22.67;;;;;;;17.49;74.98;98697.22;5006036;28;20038;-58
2023/03/18 00:06:09;;;;;;;33.33;21.90;;;;;;;17.49;75.67;98695.38;5006921;28;20169;-59
2023/03/18 00:08:57;;;;;;;30.58;21.15;;;;;;;17.47;75.99;98691.31;4987308;28;20101;-58
2023/03/18 00:11:46;;;;;;;34.95;23.50;;;;;;;17.40;75.67;98701.31;4996449;28;20743;-58
2023/03/18 00:14:36;;;;;;;39.05;22.35;;;;;;;17.37;76.28;98699.94;5005340;28;20665;-59
2023/03/18 00:17:25;;;;;;;35.30;21.80;;;;;;;17.29;75.92;98711.03;5006590;28;20557;-59
2023/03/18 00:20:08;;;;;;;32.53;21.88;;;;;;;17.34;76.14;98723.69;5006751;28;20108;-59
2023/03/18 00:23:02;;;;;;;44.85;23.17;;;;;;;17.35;75.98;98731.47;5005645;28;20049;-59
2023/03/18 00:25:38;;;;;;;42.00;22.17;;;;;;;17.29;75.81;98735.09;5006547;28;20108;-59
2023/03/18 00:28:35;;;;;;;35.35;23.08;;;;;;;17.25;76.21;98741.16;5006316;28;20054;-59
2023/03/18 00:31:12;;;;;;;34.45;22.95;;;;;;;17.24;76.37;98742.22;4988167;28;20461;-59
2023/03/18 00:34:01;;;;;;;37.75;23.67;;;;;;;17.21;76.43;98751.53;4987077;28;20042;-59
2023/03/18 00:36:44;;;;;;;41.78;24.63;;;;;;;17.38;76.80;98746.28;4989483;28;20140;-59
2023/03/18 00:39:43;;;;;;;34.17;22.38;;;;;;;17.60;76.20;98752.66;5005941;28;20050;-58
2023/03/18 00:42:19;;;;;;;30.60;22.30;;;;;;;17.63;75.60;98743.34;5005444;28;20050;-59
2023/03/18 00:45:10;;;;;;;41.90;23.92;;;;;;;17.61;76.09;98745.44;4987134;28;20511;-59
2023/03/18 00:48:06;;;;;;;41.42;23.50;;;;;;;17.67;76.40;98749.84;5004984;28;20084;-60
2023/03/18 00:51:02;;;;;;;34.83;23.58;;;;;;;17.67;76.61;98760.56;5005299;28;20127;-60
2023/03/18 00:53:38;;;;;;;34.38;23.08;;;;;;;17.68;76.32;98751.47;5002415;28;20045;-60
2023/03/18 00:56:30;;;;;;;39.60;24.30;;;;;;;17.65;76.45;98762.66;5001481;28;20132;-59
2023/03/18 00:59:14;;;;;;;34.22;23.35;;;;;;;17.81;76.21;98764.59;4987884;28;20054;-60
2023/03/18 01:02:04;;;;;;;38.45;23.25;;;;;;;17.61;76.21;98769.56;5002835;28;20072;-61
2023/03/18 01:04:46;;;;;;;35.47;24.20;;;;;;;17.62;76.52;98773.84;4988365;28;20049;-60
2023/03/18 01:07:35;;;;;;;38.22;24.20;;;;;;;17.75;76.25;98774.41;5005746;28;20789;-60
2023/03/18 01:10:18;;;;;;;36.37;22.70;;;;;;;17.72;75.88;98780.22;4988258;28;20049;-60
2023/03/18 01:13:14;;;;;;;34.53;22.15;;;;;;;17.87;75.96;98788.59;4987041;28;20287;-60
2023/03/18 01:15:50;;;;;;;36.45;19.90;;;;;;;17.83;74.72;98784.75;5005814;28;20141;-59
2023/03/18 01:18:49;;;;;;;28.63;19.00;;;;;;;17.97;75.38;98782.59;4987974;28;20050;-60
2023/03/18 01:21:27;;;;;;;25.55;18.48;;;;;;;17.82;74.33;98785.81;5004047;28;20142;-61
2023/03/18 01:24:25;;;;;;;30.65;18.65;;;;;;;17.99;73.49;98787.72;4967573;28;20046;-58
2023/03/18 01:27:01;;;;;;;31.15;17.90;;;;;;;17.90;73.96;98795.34;4988561;28;20056;-60
2023/03/18 01:29:53;;;;;;;25.95;16.92;;;;;;;17.79;73.94;98807.69;4987891;28;20053;-61
2023/03/18 01:32:36;;;;;;;21.98;17.58;;;;;;;17.81;74.89;98804.78;5003787;28;20050;-60
2023/03/18 01:35:25;;;;;;;32.42;18.33;;;;;;;17.69;74.91;98822.75;4985715;28;20066;-60
2023/03/18 01:38:09;;;;;;;32.10;18.45;;;;;;;17.56;75.31;98831.81;5005374;28;20461;-60
2023/03/18 01:40:59;;;;;;;30.17;17.95;;;;;;;17.52;75.60;98836.81;4986729;28;20112;-60
2023/03/18 01:43:43;;;;;;;;;;;;;;;17.45;76.02;98838.00;4988194;28;20077;-61
2023/03/18 01:46:47;;;;;;;22.98;16.80;;;;;;;17.54;76.27;98847.31;4987663;28;19922;-60
2023/03/18 01:49:58;;;;;;;31.35;18.02;;;;;;;17.53;76.05;98856.38;4968361;28;20065;-61
2023/03/18 01:52:53;;;;;;;25.05;17.02;;;;;;;17.56;76.04;98866.66;4985339;28;20053;-61
2023/03/18 01:55:38;;;;;;;31.90;19.08;;;;;;;17.55;76.35;98873.03;4967675;28;20602;-61
2023/03/18 01:58:36;;;;;;;29.60;19.42;;;;;;;17.46;76.76;98877.94;4967002;28;20059;-61
2023/03/18 02:01:38;;;;;;;39.85;21.23;;;;;;;17.64;76.97;98886.94;4984982;28;20042;-62
2023/03/18 02:04:26;;;;;;;37.90;23.60;;;;;;;17.73;76.22;98905.09;4976737;28;20038;-61
2023/03/18 02:07:26;;;;;;;42.58;25.92;;;;;;;17.39;75.75;98908.56;4969832;28;20734;-61
2023/03/18 02:10:23;;;;;;;39.78;26.38;;;;;;;17.36;75.50;98914.34;4985636;28;20050;-61
2023/03/18 02:13:17;;;;;;;36.80;24.92;;;;;;;17.40;76.32;98905.63;4986062;28;20116;-62
2023/03/18 02:16:06;;;;;;;44.78;26.10;;;;;;;17.34;76.18;98911.09;4987594;28;20492;-62
2023/03/18 02:18:58;;;;;;;37.88;26.42;;;;;;;17.42;76.26;98913.44;4966776;28;20438;-62
2023/03/18 02:22:15;;;;;;;39.63;26.53;;;;;;;17.46;76.02;98915.41;4984308;28;20038;-60
2023/03/18 02:25:39;;;;;;;36.10;25.98;;;;;;;17.59;75.73;98922.44;4968255;28;20284;-61
2023/03/18 02:28:30;;;;;;;38.38;25.90;;;;;;;17.47;74.96;98918.91;4979373;28;20108;-61
2023/03/18 02:31:18;;;;;;;43.25;26.65;;;;;;;17.62;75.81;98927.31;4967333;28;20050;-58
2023/03/18 02:34:09;;;;;;;39.35;25.33;;;;;;;17.67;74.52;98930.13;4964638;28;20043;-61
2023/03/18 02:36:52;;;;;;;38.72;24.77;;;;;;;17.62;74.64;98929.19;4948147;28;20098;-61
2023/03/18 02:39:44;;;;;;;38.38;25.95;;;;;;;17.64;74.78;98921.75;4975307;28;20646;-61
2023/03/18 02:42:37;;;;;;;37.10;24.73;;;;;;;17.59;74.07;98924.31;4987924;28;20533;-60
2023/03/18 02:45:33;;;;;;;41.80;26.47;;;;;;;17.79;74.00;98920.22;4965690;28;20090;-61
2023/03/18 02:48:22;;;;;;;36.75;25.15;;;;;;;17.94;73.93;98925.13;5012860;28;20441;-62
2023/03/18 02:51:11;;;;;;;;;;;;;;;18.00;73.59;98924.19;5001917;28;20039;-61
2023/03/18 02:53:54;;;;;;;39.42;24.48;;;;;;;17.92;73.55;98933.38;4994867;28;19921;-60
2023/03/18 02:56:43;;;;;;;39.10;25.38;;;;;;;18.01;74.22;98933.06;4984568;28;20084;-61
2023/03/18 02:59:26;;;;;;;37.60;25.17;;;;;;;18.10;74.13;98928.97;5009354;28;20049;-61
2023/03/18 03:02:22;;;;;;;40.83;25.27;;;;;;;18.14;73.31;98936.31;5008033;28;20045;-60
2023/03/18 03:04:58;;;;;;;35.70;22.92;;;;;;;18.25;73.58;98943.50;4984472;28;20128;-61
2023/03/18 03:07:54;;;;;;;35.90;24.17;;;;;;;18.41;72.59;98945.44;5009146;28;20106;-61
2023/03/18 03:10:35;;;;;;;37.58;23.95;;;;;;;18.38;71.79;98945.91;4989661;28;20061;-61
2023/03/18 03:13:26;;;;;;;32.40;23.08;;;;;;;18.42;70.97;98951.63;4996310;28;20050;-60
2023/03/18 03:16:09;;;;;;;;;;;;;;;18.63;71.42;98947.53;5016577;28;20500;-61
2023/03/18 03:19:04;;;;;;;35.95;23.83;;;;;;;18.57;71.35;98954.66;4971087;28;19921;-61
2023/03/18 03:21:41;;;;;;;45.42;26.13;;;;;;;18.55;70.65;98961.28;4989767;28;20437;-61
2023/03/18 03:24:37;;;;;;;38.17;25.17;;;;;;;18.57;70.54;98959.19;5022121;28;20089;-60
2023/03/18 03:27:14;;;;;;;36.05;24.52;;;;;;;18.60;69.98;98972.13;4997811;28;20045;-60
2023/03/18 03:30:06;;;;;;;35.65;25.25;;;;;;;18.68;69.48;98975.25;5026515;28;20049;-60
2023/03/18 03:32:48;;;;;;;40.75;25.13;;;;;;;18.84;69.66;98979.88;5002702;28;20439;-60
2023/03/18 03:35:38;;;;;;;35.85;25.75;;;;;;;18.99;69.33;98983.88;5014071;28;20053;-60
2023/03/18 03:38:28;;;;;;;32.90;24.77;;;;;;;19.05;69.06;98985.63;5003032;28;20802;-60
2023/03/18 03:41:12;;;;;;;32.60;25.27;;;;;;;19.10;69.84;98991.91;5022573;28;20041;-61
2023/03/18 03:44:01;;;;;;;34.15;24.38;;;;;;;19.35;69.09;98991.56;5015238;28;20090;-60
2023/03/18 03:46:43;;;;;;;35.28;24.10;;;;;;;19.57;68.21;98997.06;5006617;28;20055;-60
2023/03/18 03:49:38;;;;;;;30.48;22.15;;;;;;;19.50;67.69;99001.78;4958319;28;20047;-61
2023/03/18 03:52:18;;;;;;;33.17;23.38;;;;;;;19.59;67.89;99005.72;4985287;28;20042;-61
2023/03/18 03:55:09;;;;;;;37.17;23.73;;;;;;;19.55;69.14;99010.75;4986151;28;20050;-60
2023/03/18 03:58:00;;;;;;;31.67;23.13;;;;;;;19.70;68.76;99008.31;4974016;28;20070;-60
2023/03/18 04:00:51;;;;;;;27.83;20.73;;;;;;;20.10;67.09;99008.13;4998780;28;20050;-60
2023/03/18 04:03:41;;;;;;;32.47;22.58;;;;;;;20.10;67.36;99013.50;4983500;28;20077;-61
2023/03/18 04:06:30;;;;;;;30.45;20.27;;;;;;;20.45;66.27;99009.72;4988865;28;20108;-61
2023/03/18 04:09:20;;;;;;;27.30;20.33;;;;;;;20.69;65.35;99015.69;4985442;28;20046;-60
2023/03/18 04:12:02;;;;;;;28.77;19.27;;;;;;;20.69;65.17;99016.50;5000080;28;20053;-60
2023/03/18 04:14:59;;;;;;;28.30;19.13;;;;;;;20.88;64.97;99014.31;5004967;28;20042;-62
2023/03/18 04:17:43;;;;;;;24.13;16.58;;;;;;;20.96;64.60;99016.56;4997929;28;20933;-61
2023/03/18 04:20:36;;;;;;;22.60;17.63;;;;;;;21.21;64.50;99024.13;4978854;28;20046;-60
2023/03/18 04:23:31;;;;;;;19.80;15.45;;;;;;;21.27;63.53;99031.22;4970635;28;20136;-60
2023/03/18 04:26:22;;;;;;;16.90;13.98;;;;;;;20.61;64.52;99033.09;4985465;28;20596;-60
2023/03/18 04:29:18;;;;;;;17.55;13.73;;;;;;;20.51;65.23;99028.38;4969967;28;20050;-61
2023/03/18 04:31:55;;;;;;;22.30;14.15;;;;;;;20.45;66.20;99031.25;4996851;28;20050;-61
2023/03/18 04:34:45;;;;;;;19.05;15.30;;;;;;;20.63;65.09;99029.09;4988289;28;20057;-60
2023/03/18 04:37:28;;;;;;;15.60;12.25;;;;;;;20.58;65.25;99017.44;5000456;28;20083;-61
2023/03/18 04:40:20;;;;;;;16.40;11.82;;;;;;;20.59;65.47;99027.97;4985787;28;20058;-60
2023/03/18 04:43:02;;;;;;;;;;;;;;;20.63;64.95;99026.38;4997768;28;20119;-62
2023/03/18 04:45:54;;;;;;;17.08;11.95;;;;;;;21.02;64.50;99027.13;5000829;28;19925;-61
2023/03/18 04:48:37;;;;;;;13.45;11.40;;;;;;;20.92;64.09;99029.72;4976664;28;20560;-60
2023/03/18 04:51:26;;;;;;;16.17;10.40;;;;;;;20.95;63.84;99036.47;4968428;28;20071;-61
2023/03/18 04:54:11;;;;;;;11.23;9.38;;;;;;;20.80;63.69;99039.00;4984973;28;20474;-61
2023/03/18 04:57:05;;;;;;;12.80;8.90;;;;;;;21.17;63.32;99034.63;4958744;28;20046;-63
2023/03/18 04:59:55;;;;;;;16.70;9.65;;;;;;;21.32;62.89;99034.78;4976658;28;20755;-60
2023/03/18 05:02:52;;;;;;;11.20;8.05;;;;;;;21.27;62.73;99039.31;4974935;28;20050;-64
2023/03/18 05:05:28;;;;;;;10.18;7.90;;;;;;;20.95;63.12;99040.00;4978794;28;20045;-62
2023/03/18 05:08:20;;;;;;;12.15;8.07;;;;;;;20.93;63.22;99044.78;4987837;28;20093;-63
2023/03/18 05:11:09;;;;;;;12.95;7.93;;;;;;;21.18;63.65;99040.81;4986186;28;20059;-62
2023/03/18 05:13:51;;;;;;;10.95;8.23;;;;;;;21.17;63.34;99048.06;4963002;28;20050;-62
2023/03/18 05:16:48;;;;;;;20.33;9.55;;;;;;;21.69;62.16;99048.34;4961796;28;20046;-61
2023/03/18 05:19:39;;;;;;;9.75;8.10;;;;;;;21.94;61.64;99048.59;4972749;28;20049;-61
2023/03/18 05:22:27;;;;;;;10.52;7.72;;;;;;;22.23;61.09;99048.25;4984122;28;20042;-61
2023/03/18 05:25:22;;;;;;;16.00;8.07;;;;;;;22.80;59.03;99046.47;4968100;28;20145;-61
2023/03/18 05:28:04;;;;;;;17.10;8.50;;;;;;;22.36;59.88;99045.94;4968417;28;20042;-61
2023/03/18 05:31:16;;;;;;;14.77;7.28;;;;;;;23.09;58.65;99041.47;4984521;28;20046;-60
2023/03/18 05:34:07;;;;;;;14.82;7.55;;;;;;;23.23;57.24;99050.66;4965572;28;20049;-61
2023/03/18 05:36:56;;;;;;;19.40;7.07;;;;;;;23.79;56.20;99050.00;4968496;28;20394;-62
2023/03/18 05:39:39;;;;;;;16.42;8.10;;;;;;;24.05;56.68;99049.72;4960272;28;20450;-63
2023/03/18 05:42:29;;;;;;;15.95;7.25;;;;;;;24.13;54.95;99051.88;4969708;28;20046;-62
2023/03/18 05:45:14;;;;;;;9.77;7.18;;;;;;;24.00;54.33;99052.44;4974719;28;20070;-60
2023/03/18 05:48:10;;;;;;;13.75;7.88;;;;;;;24.44;56.12;99049.16;4980293;28;20389;-62
2023/03/18 05:51:04;;;;;;;15.93;8.00;;;;;;;25.20;53.32;99048.94;4989166;28;20081;-62
2023/03/18 05:53:46;;;;;;;;;;;;;;;24.48;52.67;99051.06;5016337;28;20502;-62
2023/03/18 05:56:42;;;;;;;10.02;6.35;;;;;;;24.81;54.51;99052.31;4996213;28;19921;-60
2023/03/18 05:59:30;;;;;;;7.90;6.35;;;;;;;24.38;54.83;99045.69;5018012;28;20053;-61
2023/03/18 06:02:13;;;;;;;7.32;6.47;;;;;;;24.19;53.70;99044.63;4989285;28;20046;-61
2023/03/18 06:05:02;;;;;;;10.65;6.95;;;;;;;24.61;54.36;99041.53;5005129;28;20483;-62
2023/03/18 06:07:45;;;;;;;7.40;6.60;;;;;;;24.15;53.40;99035.38;4985136;28;20056;-62
2023/03/18 06:10:34;;;;;;;8.65;6.22;;;;;;;24.51;54.27;99039.69;4986021;28;20042;-62
2023/03/18 06:13:17;;;;;;;9.43;5.53;;;;;;;24.98;52.70;99036.56;5002055;28;20045;-60
2023/03/18 06:16:07;;;;;;;5.68;5.18;;;;;;;25.42;51.43;99033.88;5000806;28;20810;-65
2023/03/18 06:18:50;;;;;;;9.45;5.38;;;;;;;25.19;49.33;99029.13;4998526;28;20049;-62
2023/03/18 06:21:40;;;;;;;5.93;4.97;;;;;;;25.27;49.08;99033.97;5004427;28;20127;-66
2023/03/18 06:24:22;;;;;;;8.25;6.00;;;;;;;24.81;49.05;99035.25;5006322;28;20049;-62
2023/03/18 06:27:12;;;;;;;6.35;5.75;;;;;;;24.70;50.84;99031.75;4981569;28;20073;-61
2023/03/18 06:30:03;;;;;;;11.05;6.75;;;;;;;24.60;51.31;99031.81;5002177;28;20663;-64
2023/03/18 06:32:53;;;;;;;7.00;6.22;;;;;;;24.40;51.44;99027.25;4996022;28;20080;-63
2023/03/18 06:35:35;;;;;;;8.55;5.95;;;;;;;24.62;52.82;99026.91;5004616;28;20133;-63
2023/03/18 06:38:27;;;;;;;7.88;5.63;;;;;;;24.78;52.75;99014.16;4990305;28;20617;-68
2023/03/18 06:41:11;;;;;;;8.70;6.22;;;;;;;24.66;52.79;99019.03;4995827;28;20049;-64
2023/03/18 06:44:29;;;;;;;10.27;7.30;;;;;;;24.58;52.19;99018.53;4981258;28;20571;-63
2023/03/18 06:47:21;;;;;;;8.20;6.85;;;;;;;23.93;54.33;99010.50;4988227;28;20069;-62
2023/03/18 06:50:12;;;;;;;10.38;7.50;;;;;;;23.69;54.86;99018.34;4995548;28;20069;-64
2023/03/18 06:52:54;;;;;;;9.07;6.18;;;;;;;23.46;56.08;99008.03;4997000;28;20049;-65
2023/03/18 06:55:44;;;;;;;10.40;7.70;;;;;;;23.90;57.26;99008.34;5016582;28;20489;-62
2023/03/18 06:58:30;;;;;;;8.80;7.32;;;;;;;24.19;53.87;98995.91;5003522;28;20374;-64
2023/03/18 07:01:19;;;;;;;9.90;7.97;;;;;;;24.11;54.98;98991.81;4999096;28;20045;-64
2023/03/18 07:04:14;;;;;;;9.13;7.75;;;;;;;24.12;57.18;98993.41;5008538;28;20367;-65
2023/03/18 07:06:51;;;;;;;11.57;8.90;;;;;;;24.42;53.54;98994.50;5013829;28;20046;-65
2023/03/18 07:09:49;;;;;;;9.85;8.85;;;;;;;24.60;55.07;98981.16;4997707;28;20137;-63
2023/03/18 07:12:27;;;;;;;11.85;9.63;;;;;;;24.52;53.20;98992.53;5011581;28;20832;-63
2023/03/18 07:15:25;;;;;;;9.73;8.57;;;;;;;24.02;53.69;98985.34;5014966;28;20045;-63
2023/03/18 07:18:03;;;;;;;10.52;9.23;;;;;;;24.40;54.95;98983.09;5000218;28;20098;-64
2023/03/18 07:21:00;;;;;;;10.50;8.88;;;;;;;24.82;55.15;98974.56;5000160;28;20481;-63
2023/03/18 07:23:37;;;;;;;12.95;10.93;;;;;;;24.76;54.36;98976.47;4995397;28;20074;-64
2023/03/18 07:26:28;;;;;;;11.70;10.32;;;;;;;24.77;53.91;98963.75;4996315;28;20121;-63
2023/03/18 07:29:18;;;;;;;17.08;11.43;;;;;;;24.10;53.93;98965.84;5000971;28;20062;-65
2023/03/18 07:32:00;;;;;;;12.15;9.93;;;;;;;23.73;55.61;98959.91;5008279;28;20053;-63
2023/03/18 07:34:49;;;;;;;14.27;11.10;;;;;;;23.71;56.65;98957.50;4994576;28;20050;-64
2023/03/18 07:37:32;;;;;;;14.18;12.07;;;;;;;23.33;56.01;98959.88;5011296;28;20481;-62
2023/03/18 07:40:21;;;;;;;11.32;10.00;;;;;;;23.22;56.96;98967.19;5009769;28;20048;-63
2023/03/18 07:43:07;;;;;;;15.52;10.70;;;;;;;23.43;58.27;98957.19;5007128;28;20425;-64
2023/03/18 07:45:55;;;;;;;12.82;9.65;;;;;;;23.23;57.39;98960.69;5004112;28;20058;-63
2023/03/18 07:48:37;;;;;;;11.13;10.02;;;;;;;23.54;56.31;98940.75;5015870;28;20046;-63
2023/03/18 07:51:26;;;;;;;15.38;9.60;;;;;;;23.24;54.36;98946.91;5012512;28;20555;-65
2023/03/18 07:54:16;;;;;;;14.88;10.90;;;;;;;23.03;55.85;98939.84;5014039;28;20049;-63
2023/03/18 07:56:58;;;;;;;10.73;9.60;;;;;;;23.08;55.23;98934.44;5010574;28;20164;-62
2023/03/18 07:59:55;;;;;;;11.48;10.27;;;;;;;23.48;54.45;98930.19;5017286;28;20053;-64
2023/03/18 08:02:40;;;;;;;11.82;10.63;;;;;;;23.76;55.76;98926.94;4997072;28;20046;-63
2023/03/18 08:05:28;;;;;;;11.65;9.18;;;;;;;23.96;56.44;98907.94;5014288;28;20136;-64
2023/03/18 08:08:12;;;;;;;12.73;8.85;;;;;;;23.95;54.06;98909.03;5010335;28;20050;-63
2023/03/18 08:11:01;;;;;;;11.45;9.05;;;;;;;24.35;55.62;98902.72;4997994;28;20042;-63
2023/03/18 08:13:44;;;;;;;12.20;9.02;;;;;;;24.00;52.23;98891.97;5013760;28;20115;-63
2023/03/18 08:16:40;;;;;;;14.18;8.75;;;;;;;23.87;52.47;98897.97;5012816;28;20076;-62
2023/03/18 08:19:16;;;;;;;12.77;9.02;;;;;;;23.19;55.57;98900.16;4979041;28;20045;-63
2023/03/18 08:22:11;;;;;;;11.15;9.10;;;;;;;22.76;57.08;98898.72;5006282;28;20549;-63
2023/03/18 08:24:47;;;;;;;12.43;9.40;;;;;;;22.78;58.54;98896.56;4989679;28;20108;-64
2023/03/18 08:27:36;;;;;;;10.95;9.70;;;;;;;22.78;58.72;98885.78;4993760;28;20518;-61
2023/03/18 08:30:19;;;;;;;17.23;10.20;;;;;;;22.95;60.44;98880.13;5018906;28;20099;-60
2023/03/18 08:33:15;;;;;;;12.70;10.82;;;;;;;22.53;58.36;98874.84;4986462;28;20121;-63
2023/03/18 08:35:51;;;;;;;14.18;9.68;;;;;;;22.70;58.72;98868.19;4984821;28;20060;-63
2023/03/18 08:38:46;;;;;;;11.88;10.23;;;;;;;22.60;56.54;98854.66;5008880;28;20064;-63
2023/03/18 08:41:24;;;;;;;14.63;10.95;;;;;;;22.48;56.84;98853.28;5016402;28;20377;-61
2023/03/18 08:44:19;;;;;;;11.52;10.13;;;;;;;22.66;59.51;98844.69;4994350;28;20061;-63
2023/03/18 08:46:55;;;;;;;13.95;10.20;;;;;;;22.61;57.05;98834.69;5006407;28;20512;-63
2023/03/18 08:49:49;;;;;;;9.93;8.80;;;;;;;22.92;59.45;98835.56;5004452;28;20064;-62
2023/03/18 08:52:25;;;;;;;13.32;9.98;;;;;;;22.92;57.68;98838.28;4987516;28;20112;-62
2023/03/18 08:55:15;;;;;;;12.40;11.13;;;;;;;22.86;57.63;98830.41;5005372;28;20073;-62
2023/03/18 08:57:57;;;;;;;13.07;10.65;;;;;;;22.74;59.01;98825.28;5013257;28;20144;-63
2023/03/18 09:00:53;;;;;;;17.60;10.88;;;;;;;22.58;59.01;98821.69;5016479;28;20053;-62
2023/03/18 09:03:43;;;;;;;12.70;11.20;;;;;;;22.56;60.31;98820.34;5001322;28;20046;-62
2023/03/18 09:06:33;;;;;;;15.00;10.77;;;;;;;22.51;59.32;98812.25;5000143;28;20484;-62
2023/03/18 09:09:18;;;;;;;16.02;10.27;;;;;;;22.50;59.22;98810.63;5014818;28;20132;-63
2023/03/18 09:12:23;;;;;;;12.05;10.00;;;;;;;22.61;60.73;98804.16;5005647;28;20057;-61
2023/03/18 09:15:06;;;;;;;12.60;9.95;;;;;;;22.56;60.88;98798.75;5001961;28;20048;-62
2023/03/18 09:17:57;;;;;;;11.57;9.55;;;;;;;22.66;60.62;98793.38;5022800;28;20048;-58
2023/03/18 09:20:52;;;;;;;12.13;10.50;;;;;;;22.55;59.36;98787.16;5005521;28;20046;-60
2023/03/18 09:23:42;;;;;;;11.55;9.82;;;;;;;22.52;60.12;98784.19;5008313;28;20578;-59
2023/03/18 09:26:24;;;;;;;13.05;10.00;;;;;;;22.52;60.26;98779.59;5008966;28;20449;-61
2023/03/18 09:29:13;;;;;;;16.70;10.40;;;;;;;22.70;58.93;98767.50;4983128;28;20054;-59
2023/03/18 09:31:55;;;;;;;16.42;9.90;;;;;;;22.58;59.63;98775.81;4999508;28;20523;-61
2023/03/18 09:34:45;;;;;;;15.55;9.85;;;;;;;22.70;60.13;98768.28;5018310;28;20072;-60
2023/03/18 09:37:27;;;;;;;14.95;10.57;;;;;;;22.56;60.32;98761.78;4993365;28;20062;-63
2023/03/18 09:40:36;;;;;;;15.85;9.88;;;;;;;22.68;59.98;98758.81;5011578;28;20045;-63
2023/03/18 09:43:56;;;;;;;12.07;10.10;;;;;;;22.53;59.41;98759.59;4992611;28;20064;-63
2023/03/18 09:46:49;;;;;;;22.00;11.32;;;;;;;22.50;59.43;98759.31;4974904;28;20061;-63
2023/03/18 09:49:56;;;;;;;12.07;9.20;;;;;;;22.64;58.39;98746.94;5021968;28;20057;-61
2023/03/18 09:53:05;;;;;;;12.27;9.07;;;;;;;22.65;58.63;98743.97;5008815;28;20108;-61
2023/03/18 09:56:06;;;;;;;13.90;9.68;;;;;;;22.73;58.00;98745.34;5020868;28;20431;-63
2023/03/18 09:58:52;;;;;;;13.57;10.00;;;;;;;22.79;58.55;98731.56;5015156;28;20049;-60
2023/03/18 10:01:50;;;;;;;11.25;9.40;;;;;;;22.80;59.95;98732.38;5001830;28;20136;-60
2023/03/18 10:04:39;;;;;;;11.13;9.93;;;;;;;22.91;59.47;98730.47;4995402;28;20054;-60
2023/03/18 10:07:42;;;;;;;10.82;9.73;;;;;;;22.59;58.95;98719.91;5011346;28;20137;-62
2023/03/18 10:10:27;;;;;;;10.90;9.75;;;;;;;22.88;60.49;98715.63;5011388;28;20115;-63
2023/03/18 10:13:36;;;;;;;10.80;9.70;;;;;;;22.91;57.48;98711.56;5009221;28;20055;-61
2023/03/18 10:16:21;;;;;;;12.98;10.57;;;;;;;23.03;59.74;98710.19;5007616;28;20072;-61
2023/03/18 10:19:09;;;;;;;15.13;11.10;;;;;;;23.09;59.54;98711.00;5001042;28;20053;-61
2023/03/18 10:22:12;;;;;;;12.85;10.43;;;;;;;23.04;60.26;98711.81;5004943;28;20070;-61
2023/03/18 10:25:13;;;;;;;14.05;11.13;;;;;;;23.10;60.30;98705.31;5006759;28;20130;-60
2023/03/18 10:28:04;;;;;;;13.50;11.55;;;;;;;22.87;59.65;98702.41;5016806;28;20045;-62
2023/03/18 10:31:22;;;;;;;15.32;12.25;;;;;;;22.80;59.37;98702.66;5016943;28;20390;-62
2023/03/18 10:34:05;;;;;;;17.27;13.40;;;;;;;22.80;59.51;98692.66;5003006;28;20064;-61
2023/03/18 10:37:03;;;;;;;17.35;13.23;;;;;;;22.86;61.09;98693.47;5017609;28;20115;-62
2023/03/18 10:39:53;;;;;;;15.00;13.40;;;;;;;22.98;61.10;98687.78;5005892;28;20041;-65
2023/03/18 10:42:37;;;;;;;14.63;13.05;;;;;;;23.04;58.68;98687.50;5008954;28;20112;-64
2023/03/18 10:45:40;;;;;;;15.98;13.38;;;;;;;23.16;61.07;98677.22;5004878;28;20171;-62
2023/03/18 10:48:39;;;;;;;17.17;14.00;;;;;;;22.96;59.22;98671.88;4979833;28;20050;-63
2023/03/18 10:51:33;;;;;;;17.98;13.45;;;;;;;23.14;59.98;98675.88;4985597;28;20062;-63
2023/03/18 10:54:35;;;;;;;19.90;13.98;;;;;;;22.99;60.61;98678.59;4985526;28;20046;-62
2023/03/18 10:57:26;;;;;;;23.13;13.80;;;;;;;22.92;60.70;98664.59;4998772;28;20059;-59
2023/03/18 11:00:25;;;;;;;19.00;14.00;;;;;;;22.99;60.77;98657.00;4989940;28;20133;-60
2023/03/18 11:03:26;;;;;;;21.25;14.23;;;;;;;23.00;60.18;98654.03;4982721;28;20132;-59
2023/03/18 11:06:17;;;;;;;17.60;13.82;;;;;;;22.86;60.97;98662.97;4977767;28;20096;-60
2023/03/18 11:09:23;;;;;;;21.38;13.88;;;;;;;22.65;61.22;98656.75;4977517;28;20442;-60
2023/03/18 11:12:15;;;;;;;14.00;12.50;;;;;;;22.62;60.87;98654.56;4996565;28;20050;-61
2023/03/18 11:15:04;;;;;;;15.30;12.68;;;;;;;22.78;61.44;98648.13;4988104;28;20050;-61
2023/03/18 11:17:50;;;;;;;15.27;12.90;;;;;;;22.66;60.61;98652.97;4995101;28;20050;-60
2023/03/18 11:20:48;;;;;;;14.43;12.80;;;;;;;22.32;61.91;98652.72;4988359;28;20077;-61
2023/03/18 11:23:47;;;;;;;14.10;12.60;;;;;;;22.47;61.11;98650.03;4997180;28;20279;-56
2023/03/18 11:26:36;;;;;;;16.73;12.35;;;;;;;22.49;59.80;98639.75;4972488;28;20070;-60
2023/03/18 11:29:23;;;;;;;15.80;12.27;;;;;;;22.45;60.84;98648.66;4983497;28;20047;-56
2023/03/18 11:32:33;;;;;;;17.63;12.40;;;;;;;22.55;62.56;98648.66;4986784;28;20050;-60
2023/03/18 11:35:22;;;;;;;12.80;10.82;;;;;;;22.14;60.33;98650.53;4981443;28;20081;-60
2023/03/18 11:38:21;;;;;;;13.40;9.85;;;;;;;21.97;60.39;98644.59;4993349;28;20069;-60
2023/03/18 11:41:21;;;;;;;16.80;10.98;;;;;;;22.11;61.16;98641.09;4968344;28;20054;-61
2023/03/18 11:44:24;;;;;;;14.18;10.38;;;;;;;21.90;60.93;98647.53;4982062;28;20046;-61
2023/03/18 11:47:21;;;;;;;17.05;10.38;;;;;;;21.92;59.15;98645.34;4971375;28;20082;-60
2023/03/18 11:50:26;;;;;;;14.55;10.63;;;;;;;22.01;59.77;98645.66;4997851;28;20104;-60
2023/03/18 11:53:59;;;;;;;12.07;10.65;;;;;;;21.99;61.39;98643.25;5010967;28;20045;-61
2023/03/18 11:56:53;;;;;;;13.48;11.32;;;;;;;21.85;60.47;98645.63;5020726;28;20156;-61
2023/03/18 11:59:55;;;;;;;12.98;10.77;;;;;;;21.70;61.98;98639.38;5007729;28;20054;-60
2023/03/18 12:02:44;;;;;;;13.38;10.30;;;;;;;21.77;62.47;98645.34;5019493;28;20061;-61
2023/03/18 12:06:13;;;;;;;16.17;12.15;;;;;;;21.97;61.52;98645.41;5010082;28;20124;-59
2023/03/18 12:09:02;;;;;;;17.27;12.95;;;;;;;21.86;59.91;98649.13;4993148;28;20041;-61
2023/03/18 12:12:05;;;;;;;16.83;12.02;;;;;;;21.70;61.21;98652.84;5020085;28;20807;-60
2023/03/18 12:15:04;;;;;;;21.50;13.93;;;;;;;21.67;62.04;98650.69;5007917;28;20112;-61
2023/03/18 12:18:22;;;;;;;16.52;9.50;;;;;;;21.48;60.61;98647.66;5009150;28;20147;-60
2023/03/18 12:21:09;;;;;;;10.95;9.85;;;;;;;21.60;62.27;98647.44;4999291;28;20046;-61
2023/03/18 12:24:24;;;;;;;11.68;10.30;;;;;;;21.49;61.25;98651.97;4991854;28;20049;-61
2023/03/18 12:27:26;;;;;;;14.43;9.73;;;;;;;21.53;62.85;98647.69;4991033;28;20050;-62
2023/03/18 12:30:45;;;;;;;14.02;11.60;;;;;;;21.44;62.74;98647.38;4997628;28;20485;-62
2023/03/18 12:34:06;;;;;;;12.45;10.20;;;;;;;21.45;62.60;98650.91;5020305;28;20053;-62
2023/03/18 12:37:34;;;;;;;13.82;9.90;;;;;;;21.23;62.97;98645.69;5007896;28;20489;-60
2023/03/18 12:40:50;;;;;;;11.18;9.70;;;;;;;21.28;64.05;98643.03;4995822;28;20045;-63
2023/03/18 12:43:47;;;;;;;16.27;10.32;;;;;;;20.83;62.07;98646.25;5004065;28;20127;-60
2023/03/18 12:47:14;;;;;;;13.57;9.93;;;;;;;21.14;63.34;98649.13;5003359;28;20049;-59
2023/03/18 12:50:24;;;;;;;13.40;10.02;;;;;;;21.02;63.71;98649.31;4988578;28;20038;-61
2023/03/18 12:53:28;;;;;;;16.45;11.15;;;;;;;21.05;64.57;98659.56;4996165;28;20050;-60
2023/03/18 12:56:22;;;;;;;16.15;10.40;;;;;;;20.83;62.14;98651.63;5003119;28;20136;-61
2023/03/18 12:59:32;;;;;;;13.60;10.20;;;;;;;21.02;64.66;98655.50;5005489;28;20137;-61
2023/03/18 13:02:35;;;;;;;13.70;10.38;;;;;;;20.79;64.61;98647.03;5002948;28;20836;-59
2023/03/18 13:05:52;;;;;;;13.70;10.10;;;;;;;21.00;65.13;98654.16;5004336;28;20129;-61
2023/03/18 13:08:53;;;;;;;13.38;10.18;;;;;;;20.93;63.84;98648.19;5005816;28;20668;-60
2023/03/18 13:12:06;;;;;;;14.05;10.43;;;;;;;20.77;64.23;98649.97;5005197;28;20042;-60
2023/03/18 13:15:03;;;;;;;14.25;10.02;;;;;;;20.81;65.13;98655.63;5005916;28;20161;-61